sensor_id;sensor_type;location;lat;lon;timestamp;P1;durP1;ratioP1;P2;durP2;ratioP2
81960;SDS011;71462;50.650;6.888;2023-07-20T00:00:52;7.80;;;3.08;;
81960;SDS011;71462;50.650;6.888;2023-07-20T00:03:09;9.90;;;3.70;;
81960;SDS011;71462;50.650;6.888;2023-07-20T00:05:12;8.13;;;3.00;;
81960;SDS011;71462;50.650;6.888;2023-07-20T00:07:15;5.50;;;3.13;;
81960;SDS011;71462;50.650;6.888;2023-07-20T00:09:17;8.40;;;3.05;;
81960;SDS011;71462;50.650;6.888;2023-07-20T00:11:20;7.65;;;3.00;;
81960;SDS011;71462;50.650;6.888;2023-07-20T00:13:25;9.23;;;3.28;;
81960;SDS011;71462;50.650;6.888;2023-07-20T00:15:27;7.80;;;3.28;;
81960;SDS011;71462;50.650;6.888;2023-07-20T00:17:29;7.03;;;3.20;;
81960;SDS011;71462;50.650;6.888;2023-07-20T00:19:32;9.52;;;3.08;;
81960;SDS011;71462;50.650;6.888;2023-07-20T00:21:36;6.15;;;3.47;;
81960;SDS011;71462;50.650;6.888;2023-07-20T00:23:38;6.45;;;3.00;;
81960;SDS011;71462;50.650;6.888;2023-07-20T00:25:41;6.22;;;3.10;;
81960;SDS011;71462;50.650;6.888;2023-07-20T00:27:44;6.38;;;3.13;;
81960;SDS011;71462;50.650;6.888;2023-07-20T00:29:47;8.48;;;3.78;;
81960;SDS011;71462;50.650;6.888;2023-07-20T00:31:50;7.40;;;3.20;;
81960;SDS011;71462;50.650;6.888;2023-07-20T00:33:52;6.47;;;3.80;;
81960;SDS011;71462;50.650;6.888;2023-07-20T00:35:55;5.82;;;3.17;;
81960;SDS011;71462;50.650;6.888;2023-07-20T00:37:58;6.45;;;3.03;;
81960;SDS011;71462;50.650;6.888;2023-07-20T00:40:00;6.35;;;3.03;;
81960;SDS011;71462;50.650;6.888;2023-07-20T00:42:06;5.60;;;3.75;;
81960;SDS011;71462;50.650;6.888;2023-07-20T00:44:09;6.53;;;3.30;;
81960;SDS011;71462;50.650;6.888;2023-07-20T00:46:13;5.70;;;3.15;;
81960;SDS011;71462;50.650;6.888;2023-07-20T00:48:16;6.03;;;3.00;;
81960;SDS011;71462;50.650;6.888;2023-07-20T00:50:18;5.65;;;2.53;;
81960;SDS011;71462;50.650;6.888;2023-07-20T00:52:21;8.23;;;3.50;;
81960;SDS011;71462;50.650;6.888;2023-07-20T00:54:25;7.07;;;3.20;;
81960;SDS011;71462;50.650;6.888;2023-07-20T00:56:28;9.32;;;3.40;;
81960;SDS011;71462;50.650;6.888;2023-07-20T00:58:31;4.63;;;2.90;;
81960;SDS011;71462;50.650;6.888;2023-07-20T01:00:34;6.78;;;3.53;;
81960;SDS011;71462;50.650;6.888;2023-07-20T01:02:38;8.00;;;2.83;;
81960;SDS011;71462;50.650;6.888;2023-07-20T01:04:40;7.00;;;3.38;;
81960;SDS011;71462;50.650;6.888;2023-07-20T01:06:45;7.00;;;3.30;;
81960;SDS011;71462;50.650;6.888;2023-07-20T01:08:57;9.40;;;3.75;;
81960;SDS011;71462;50.650;6.888;2023-07-20T01:11:10;6.20;;;2.92;;
81960;SDS011;71462;50.650;6.888;2023-07-20T01:13:18;7.75;;;3.33;;
81960;SDS011;71462;50.650;6.888;2023-07-20T01:15:24;7.65;;;3.13;;
81960;SDS011;71462;50.650;6.888;2023-07-20T01:17:25;5.70;;;3.00;;
81960;SDS011;71462;50.650;6.888;2023-07-20T01:19:30;5.97;;;3.65;;
81960;SDS011;71462;50.650;6.888;2023-07-20T01:21:34;4.95;;;2.45;;
81960;SDS011;71462;50.650;6.888;2023-07-20T01:23:50;5.55;;;2.70;;
81960;SDS011;71462;50.650;6.888;2023-07-20T01:26:20;4.63;;;2.55;;
81960;SDS011;71462;50.650;6.888;2023-07-20T01:28:37;7.10;;;3.30;;
81960;SDS011;71462;50.650;6.888;2023-07-20T01:31:10;7.60;;;3.35;;
81960;SDS011;71462;50.650;6.888;2023-07-20T01:33:19;8.27;;;3.00;;
81960;SDS011;71462;50.650;6.888;2023-07-20T01:35:23;5.68;;;2.90;;
81960;SDS011;71462;50.650;6.888;2023-07-20T01:37:28;5.82;;;2.78;;
81960;SDS011;71462;50.650;6.888;2023-07-20T01:39:32;7.13;;;2.88;;
81960;SDS011;71462;50.650;6.888;2023-07-20T01:41:35;7.47;;;3.20;;
81960;SDS011;71462;50.650;6.888;2023-07-20T01:43:38;6.50;;;2.97;;
81960;SDS011;71462;50.650;6.888;2023-07-20T01:45:40;5.93;;;3.35;;
81960;SDS011;71462;50.650;6.888;2023-07-20T01:47:44;6.18;;;2.70;;
81960;SDS011;71462;50.650;6.888;2023-07-20T01:49:46;8.18;;;2.85;;
81960;SDS011;71462;50.650;6.888;2023-07-20T01:51:49;4.68;;;2.88;;
81960;SDS011;71462;50.650;6.888;2023-07-20T01:53:51;6.68;;;3.17;;
81960;SDS011;71462;50.650;6.888;2023-07-20T01:55:54;5.05;;;2.63;;
81960;SDS011;71462;50.650;6.888;2023-07-20T01:57:56;7.15;;;2.75;;
81960;SDS011;71462;50.650;6.888;2023-07-20T02:00:00;7.38;;;3.42;;
81960;SDS011;71462;50.650;6.888;2023-07-20T02:02:03;5.50;;;2.88;;
81960;SDS011;71462;50.650;6.888;2023-07-20T02:04:08;6.07;;;2.40;;
81960;SDS011;71462;50.650;6.888;2023-07-20T02:06:10;7.07;;;3.13;;
81960;SDS011;71462;50.650;6.888;2023-07-20T02:08:13;6.57;;;2.92;;
81960;SDS011;71462;50.650;6.888;2023-07-20T02:10:17;9.00;;;2.92;;
81960;SDS011;71462;50.650;6.888;2023-07-20T02:12:19;6.85;;;2.60;;
81960;SDS011;71462;50.650;6.888;2023-07-20T02:14:22;5.38;;;2.90;;
81960;SDS011;71462;50.650;6.888;2023-07-20T02:16:24;4.78;;;2.60;;
81960;SDS011;71462;50.650;6.888;2023-07-20T02:18:27;6.93;;;2.95;;
81960;SDS011;71462;50.650;6.888;2023-07-20T02:20:31;6.20;;;2.97;;
81960;SDS011;71462;50.650;6.888;2023-07-20T02:22:33;5.38;;;2.58;;
81960;SDS011;71462;50.650;6.888;2023-07-20T02:24:36;5.75;;;2.63;;
81960;SDS011;71462;50.650;6.888;2023-07-20T02:26:39;7.53;;;3.17;;
81960;SDS011;71462;50.650;6.888;2023-07-20T02:28:40;5.60;;;2.90;;
81960;SDS011;71462;50.650;6.888;2023-07-20T02:30:43;5.57;;;2.90;;
81960;SDS011;71462;50.650;6.888;2023-07-20T02:32:46;4.88;;;2.75;;
81960;SDS011;71462;50.650;6.888;2023-07-20T02:34:50;4.55;;;2.63;;
81960;SDS011;71462;50.650;6.888;2023-07-20T02:36:54;4.65;;;2.60;;
81960;SDS011;71462;50.650;6.888;2023-07-20T02:38:59;4.50;;;2.25;;
81960;SDS011;71462;50.650;6.888;2023-07-20T02:41:03;5.25;;;2.50;;
81960;SDS011;71462;50.650;6.888;2023-07-20T02:43:05;6.50;;;2.92;;
81960;SDS011;71462;50.650;6.888;2023-07-20T02:45:08;4.47;;;2.60;;
81960;SDS011;71462;50.650;6.888;2023-07-20T02:47:11;11.68;;;3.05;;
81960;SDS011;71462;50.650;6.888;2023-07-20T02:49:14;4.38;;;2.50;;
81960;SDS011;71462;50.650;6.888;2023-07-20T02:51:20;5.50;;;2.60;;
81960;SDS011;71462;50.650;6.888;2023-07-20T02:53:23;5.95;;;2.40;;
81960;SDS011;71462;50.650;6.888;2023-07-20T02:55:26;5.95;;;2.60;;
81960;SDS011;71462;50.650;6.888;2023-07-20T02:57:29;6.47;;;2.35;;
81960;SDS011;71462;50.650;6.888;2023-07-20T02:59:32;5.57;;;2.47;;
81960;SDS011;71462;50.650;6.888;2023-07-20T03:01:35;6.65;;;3.05;;
81960;SDS011;71462;50.650;6.888;2023-07-20T03:03:37;7.03;;;2.90;;
81960;SDS011;71462;50.650;6.888;2023-07-20T03:05:40;4.82;;;2.42;;
81960;SDS011;71462;50.650;6.888;2023-07-20T03:07:43;5.63;;;2.45;;
81960;SDS011;71462;50.650;6.888;2023-07-20T03:09:47;6.15;;;2.55;;
81960;SDS011;71462;50.650;6.888;2023-07-20T03:11:49;7.43;;;2.70;;
81960;SDS011;71462;50.650;6.888;2023-07-20T03:13:52;4.57;;;2.47;;
81960;SDS011;71462;50.650;6.888;2023-07-20T03:15:54;6.60;;;2.70;;
81960;SDS011;71462;50.650;6.888;2023-07-20T03:17:57;4.85;;;2.45;;
81960;SDS011;71462;50.650;6.888;2023-07-20T03:20:00;5.55;;;2.40;;
81960;SDS011;71462;50.650;6.888;2023-07-20T03:22:02;4.45;;;2.58;;
81960;SDS011;71462;50.650;6.888;2023-07-20T03:24:05;5.85;;;3.13;;
81960;SDS011;71462;50.650;6.888;2023-07-20T03:26:08;4.80;;;2.30;;
81960;SDS011;71462;50.650;6.888;2023-07-20T03:28:11;7.50;;;2.50;;
81960;SDS011;71462;50.650;6.888;2023-07-20T03:30:14;4.95;;;2.35;;
81960;SDS011;71462;50.650;6.888;2023-07-20T03:32:17;4.95;;;2.20;;
81960;SDS011;71462;50.650;6.888;2023-07-20T03:34:20;4.18;;;2.42;;
81960;SDS011;71462;50.650;6.888;2023-07-20T03:36:22;6.20;;;2.70;;
81960;SDS011;71462;50.650;6.888;2023-07-20T03:38:26;4.75;;;2.30;;
81960;SDS011;71462;50.650;6.888;2023-07-20T03:40:29;4.90;;;2.67;;
81960;SDS011;71462;50.650;6.888;2023-07-20T03:42:32;9.68;;;2.42;;
81960;SDS011;71462;50.650;6.888;2023-07-20T03:44:34;4.85;;;2.50;;
81960;SDS011;71462;50.650;6.888;2023-07-20T03:46:39;8.10;;;3.15;;
81960;SDS011;71462;50.650;6.888;2023-07-20T03:48:42;5.05;;;2.65;;
81960;SDS011;71462;50.650;6.888;2023-07-20T03:50:45;7.10;;;2.63;;
81960;SDS011;71462;50.650;6.888;2023-07-20T03:52:47;6.82;;;2.90;;
81960;SDS011;71462;50.650;6.888;2023-07-20T03:54:50;6.10;;;2.85;;
81960;SDS011;71462;50.650;6.888;2023-07-20T03:56:53;9.00;;;2.83;;
81960;SDS011;71462;50.650;6.888;2023-07-20T03:58:57;5.88;;;2.83;;
81960;SDS011;71462;50.650;6.888;2023-07-20T04:00:59;6.53;;;2.50;;
81960;SDS011;71462;50.650;6.888;2023-07-20T04:03:02;5.47;;;2.30;;
81960;SDS011;71462;50.650;6.888;2023-07-20T04:05:05;4.72;;;2.38;;
81960;SDS011;71462;50.650;6.888;2023-07-20T04:07:08;8.60;;;2.83;;
81960;SDS011;71462;50.650;6.888;2023-07-20T04:09:11;7.18;;;3.05;;
81960;SDS011;71462;50.650;6.888;2023-07-20T04:11:14;6.60;;;2.88;;
81960;SDS011;71462;50.650;6.888;2023-07-20T04:13:17;7.53;;;2.80;;
81960;SDS011;71462;50.650;6.888;2023-07-20T04:15:21;4.80;;;2.78;;
81960;SDS011;71462;50.650;6.888;2023-07-20T04:17:24;5.15;;;2.95;;
81960;SDS011;71462;50.650;6.888;2023-07-20T04:19:26;7.13;;;2.90;;
81960;SDS011;71462;50.650;6.888;2023-07-20T04:21:29;5.85;;;3.17;;
81960;SDS011;71462;50.650;6.888;2023-07-20T04:23:31;7.75;;;3.13;;
81960;SDS011;71462;50.650;6.888;2023-07-20T04:25:34;5.93;;;2.90;;
81960;SDS011;71462;50.650;6.888;2023-07-20T04:27:40;5.35;;;2.65;;
81960;SDS011;71462;50.650;6.888;2023-07-20T04:29:43;12.57;;;3.15;;
81960;SDS011;71462;50.650;6.888;2023-07-20T04:31:46;7.15;;;2.70;;
81960;SDS011;71462;50.650;6.888;2023-07-20T04:33:49;7.60;;;3.20;;
81960;SDS011;71462;50.650;6.888;2023-07-20T04:35:52;8.73;;;3.33;;
81960;SDS011;71462;50.650;6.888;2023-07-20T04:37:56;6.30;;;2.97;;
81960;SDS011;71462;50.650;6.888;2023-07-20T04:39:58;7.47;;;3.53;;
81960;SDS011;71462;50.650;6.888;2023-07-20T04:42:00;11.32;;;3.70;;
81960;SDS011;71462;50.650;6.888;2023-07-20T04:44:03;8.88;;;3.83;;
81960;SDS011;71462;50.650;6.888;2023-07-20T04:46:06;10.48;;;3.80;;
81960;SDS011;71462;50.650;6.888;2023-07-20T04:48:10;8.57;;;4.07;;
81960;SDS011;71462;50.650;6.888;2023-07-20T04:50:14;9.23;;;4.20;;
81960;SDS011;71462;50.650;6.888;2023-07-20T04:52:21;7.70;;;3.92;;
81960;SDS011;71462;50.650;6.888;2023-07-20T04:54:37;7.60;;;4.28;;
81960;SDS011;71462;50.650;6.888;2023-07-20T04:56:40;9.00;;;3.90;;
81960;SDS011;71462;50.650;6.888;2023-07-20T04:58:42;11.23;;;4.78;;
81960;SDS011;71462;50.650;6.888;2023-07-20T05:00:45;8.20;;;5.10;;
81960;SDS011;71462;50.650;6.888;2023-07-20T05:02:48;10.18;;;4.00;;
81960;SDS011;71462;50.650;6.888;2023-07-20T05:04:53;7.55;;;4.40;;
81960;SDS011;71462;50.650;6.888;2023-07-20T05:06:55;10.35;;;4.43;;
81960;SDS011;71462;50.650;6.888;2023-07-20T05:08:58;9.35;;;4.40;;
81960;SDS011;71462;50.650;6.888;2023-07-20T05:11:01;9.05;;;4.50;;
81960;SDS011;71462;50.650;6.888;2023-07-20T05:13:03;8.60;;;4.20;;
81960;SDS011;71462;50.650;6.888;2023-07-20T05:15:06;8.32;;;4.15;;
81960;SDS011;71462;50.650;6.888;2023-07-20T05:17:09;8.50;;;4.05;;
81960;SDS011;71462;50.650;6.888;2023-07-20T05:19:14;8.13;;;3.83;;
81960;SDS011;71462;50.650;6.888;2023-07-20T05:21:18;12.57;;;4.35;;
81960;SDS011;71462;50.650;6.888;2023-07-20T05:23:21;11.88;;;5.00;;
81960;SDS011;71462;50.650;6.888;2023-07-20T05:25:24;10.13;;;4.32;;
81960;SDS011;71462;50.650;6.888;2023-07-20T05:27:30;10.98;;;4.43;;
81960;SDS011;71462;50.650;6.888;2023-07-20T05:29:32;12.07;;;4.72;;
81960;SDS011;71462;50.650;6.888;2023-07-20T05:31:35;10.70;;;5.25;;
81960;SDS011;71462;50.650;6.888;2023-07-20T05:33:37;10.30;;;4.80;;
81960;SDS011;71462;50.650;6.888;2023-07-20T05:35:40;13.20;;;5.80;;
81960;SDS011;71462;50.650;6.888;2023-07-20T05:37:44;10.52;;;5.35;;
81960;SDS011;71462;50.650;6.888;2023-07-20T05:39:47;11.80;;;5.80;;
81960;SDS011;71462;50.650;6.888;2023-07-20T05:41:49;11.73;;;5.75;;
81960;SDS011;71462;50.650;6.888;2023-07-20T05:43:53;12.02;;;5.50;;
81960;SDS011;71462;50.650;6.888;2023-07-20T05:45:56;10.77;;;5.45;;
81960;SDS011;71462;50.650;6.888;2023-07-20T05:47:58;12.88;;;5.38;;
81960;SDS011;71462;50.650;6.888;2023-07-20T05:50:00;13.52;;;6.30;;
81960;SDS011;71462;50.650;6.888;2023-07-20T05:52:05;12.82;;;5.20;;
81960;SDS011;71462;50.650;6.888;2023-07-20T05:54:09;14.07;;;6.38;;
81960;SDS011;71462;50.650;6.888;2023-07-20T05:56:13;8.95;;;5.60;;
81960;SDS011;71462;50.650;6.888;2023-07-20T05:58:16;10.48;;;5.43;;
81960;SDS011;71462;50.650;6.888;2023-07-20T06:00:19;12.98;;;6.25;;
81960;SDS011;71462;50.650;6.888;2023-07-20T06:02:27;9.60;;;5.85;;
81960;SDS011;71462;50.650;6.888;2023-07-20T06:04:30;10.07;;;6.35;;
81960;SDS011;71462;50.650;6.888;2023-07-20T06:06:33;9.82;;;5.60;;
81960;SDS011;71462;50.650;6.888;2023-07-20T06:08:35;16.02;;;6.40;;
81960;SDS011;71462;50.650;6.888;2023-07-20T06:10:39;12.00;;;6.15;;
81960;SDS011;71462;50.650;6.888;2023-07-20T06:12:45;10.70;;;6.20;;
81960;SDS011;71462;50.650;6.888;2023-07-20T06:14:48;9.75;;;6.18;;
81960;SDS011;71462;50.650;6.888;2023-07-20T06:16:51;13.07;;;6.65;;
81960;SDS011;71462;50.650;6.888;2023-07-20T06:18:54;11.75;;;5.93;;
81960;SDS011;71462;50.650;6.888;2023-07-20T06:20:57;8.90;;;5.15;;
81960;SDS011;71462;50.650;6.888;2023-07-20T06:23:00;7.60;;;5.05;;
81960;SDS011;71462;50.650;6.888;2023-07-20T06:25:03;10.75;;;5.30;;
81960;SDS011;71462;50.650;6.888;2023-07-20T06:27:08;12.88;;;6.20;;
81960;SDS011;71462;50.650;6.888;2023-07-20T06:29:10;9.20;;;5.18;;
81960;SDS011;71462;50.650;6.888;2023-07-20T06:31:12;9.55;;;5.90;;
81960;SDS011;71462;50.650;6.888;2023-07-20T06:33:15;12.23;;;5.35;;
81960;SDS011;71462;50.650;6.888;2023-07-20T06:35:17;15.00;;;8.20;;
81960;SDS011;71462;50.650;6.888;2023-07-20T06:37:20;10.93;;;5.18;;
81960;SDS011;71462;50.650;6.888;2023-07-20T06:39:23;8.45;;;5.20;;
81960;SDS011;71462;50.650;6.888;2023-07-20T06:41:28;9.13;;;4.55;;
81960;SDS011;71462;50.650;6.888;2023-07-20T06:43:35;7.82;;;4.38;;
81960;SDS011;71462;50.650;6.888;2023-07-20T06:47:44;9.68;;;5.45;;
81960;SDS011;71462;50.650;6.888;2023-07-20T06:49:46;7.80;;;4.47;;
81960;SDS011;71462;50.650;6.888;2023-07-20T06:51:49;8.70;;;4.82;;
81960;SDS011;71462;50.650;6.888;2023-07-20T06:53:51;10.88;;;5.47;;
81960;SDS011;71462;50.650;6.888;2023-07-20T06:55:54;8.85;;;5.20;;
81960;SDS011;71462;50.650;6.888;2023-07-20T06:57:58;10.25;;;5.30;;
81960;SDS011;71462;50.650;6.888;2023-07-20T07:00:02;7.93;;;4.55;;
81960;SDS011;71462;50.650;6.888;2023-07-20T07:02:06;8.98;;;4.28;;
81960;SDS011;71462;50.650;6.888;2023-07-20T07:04:15;10.98;;;4.80;;
81960;SDS011;71462;50.650;6.888;2023-07-20T07:06:17;8.85;;;4.93;;
81960;SDS011;71462;50.650;6.888;2023-07-20T07:08:23;7.88;;;4.45;;
81960;SDS011;71462;50.650;6.888;2023-07-20T07:10:25;8.55;;;5.13;;
81960;SDS011;71462;50.650;6.888;2023-07-20T07:12:30;8.38;;;4.82;;
81960;SDS011;71462;50.650;6.888;2023-07-20T07:14:33;9.27;;;4.25;;
81960;SDS011;71462;50.650;6.888;2023-07-20T07:16:37;7.78;;;4.53;;
81960;SDS011;71462;50.650;6.888;2023-07-20T07:18:40;9.10;;;4.68;;
81960;SDS011;71462;50.650;6.888;2023-07-20T07:20:49;9.13;;;4.80;;
81960;SDS011;71462;50.650;6.888;2023-07-20T07:22:52;11.27;;;4.60;;
81960;SDS011;71462;50.650;6.888;2023-07-20T07:24:56;8.50;;;4.90;;
81960;SDS011;71462;50.650;6.888;2023-07-20T07:26:59;7.80;;;4.40;;
81960;SDS011;71462;50.650;6.888;2023-07-20T07:29:02;11.70;;;4.70;;
81960;SDS011;71462;50.650;6.888;2023-07-20T07:31:05;7.50;;;4.50;;
81960;SDS011;71462;50.650;6.888;2023-07-20T07:33:09;6.07;;;3.72;;
81960;SDS011;71462;50.650;6.888;2023-07-20T07:35:12;6.78;;;4.10;;
81960;SDS011;71462;50.650;6.888;2023-07-20T07:37:14;8.43;;;4.20;;
81960;SDS011;71462;50.650;6.888;2023-07-20T07:39:17;7.07;;;3.83;;
81960;SDS011;71462;50.650;6.888;2023-07-20T07:41:23;6.63;;;3.55;;
81960;SDS011;71462;50.650;6.888;2023-07-20T07:43:25;5.80;;;3.58;;
81960;SDS011;71462;50.650;6.888;2023-07-20T07:45:28;8.43;;;3.65;;
81960;SDS011;71462;50.650;6.888;2023-07-20T07:47:31;7.65;;;4.13;;
81960;SDS011;71462;50.650;6.888;2023-07-20T07:49:35;6.80;;;3.55;;
81960;SDS011;71462;50.650;6.888;2023-07-20T07:51:37;5.28;;;3.75;;
81960;SDS011;71462;50.650;6.888;2023-07-20T07:53:40;7.50;;;3.25;;
81960;SDS011;71462;50.650;6.888;2023-07-20T07:55:43;6.35;;;3.55;;
81960;SDS011;71462;50.650;6.888;2023-07-20T07:57:46;5.05;;;3.20;;
81960;SDS011;71462;50.650;6.888;2023-07-20T07:59:48;5.72;;;3.40;;
81960;SDS011;71462;50.650;6.888;2023-07-20T08:01:52;10.63;;;5.45;;
81960;SDS011;71462;50.650;6.888;2023-07-20T08:03:55;5.00;;;3.03;;
81960;SDS011;71462;50.650;6.888;2023-07-20T08:05:59;5.00;;;3.13;;
81960;SDS011;71462;50.650;6.888;2023-07-20T08:08:05;5.38;;;2.65;;
81960;SDS011;71462;50.650;6.888;2023-07-20T08:10:09;5.90;;;2.80;;
81960;SDS011;71462;50.650;6.888;2023-07-20T08:12:12;7.32;;;2.90;;
81960;SDS011;71462;50.650;6.888;2023-07-20T08:14:15;7.53;;;3.20;;
81960;SDS011;71462;50.650;6.888;2023-07-20T08:16:18;5.93;;;2.80;;
81960;SDS011;71462;50.650;6.888;2023-07-20T08:18:21;7.15;;;4.10;;
81960;SDS011;71462;50.650;6.888;2023-07-20T08:20:24;5.28;;;3.10;;
81960;SDS011;71462;50.650;6.888;2023-07-20T08:22:29;5.78;;;2.55;;
81960;SDS011;71462;50.650;6.888;2023-07-20T08:24:32;4.28;;;2.50;;
81960;SDS011;71462;50.650;6.888;2023-07-20T08:26:34;5.25;;;2.45;;
81960;SDS011;71462;50.650;6.888;2023-07-20T08:28:37;4.13;;;2.38;;
81960;SDS011;71462;50.650;6.888;2023-07-20T08:30:40;5.05;;;2.20;;
81960;SDS011;71462;50.650;6.888;2023-07-20T08:32:43;4.50;;;2.42;;
81960;SDS011;71462;50.650;6.888;2023-07-20T08:34:46;4.30;;;2.38;;
81960;SDS011;71462;50.650;6.888;2023-07-20T08:36:48;6.72;;;2.92;;
81960;SDS011;71462;50.650;6.888;2023-07-20T08:38:51;4.82;;;2.30;;
81960;SDS011;71462;50.650;6.888;2023-07-20T08:40:53;5.45;;;2.45;;
81960;SDS011;71462;50.650;6.888;2023-07-20T08:42:57;4.05;;;2.30;;
81960;SDS011;71462;50.650;6.888;2023-07-20T08:45:01;4.72;;;2.30;;
81960;SDS011;71462;50.650;6.888;2023-07-20T08:47:08;4.03;;;2.50;;
81960;SDS011;71462;50.650;6.888;2023-07-20T08:49:12;6.13;;;2.85;;
81960;SDS011;71462;50.650;6.888;2023-07-20T08:51:17;3.92;;;2.30;;
81960;SDS011;71462;50.650;6.888;2023-07-20T08:53:22;3.35;;;1.75;;
81960;SDS011;71462;50.650;6.888;2023-07-20T08:55:26;5.88;;;2.67;;
81960;SDS011;71462;50.650;6.888;2023-07-20T08:57:29;6.22;;;2.78;;
81960;SDS011;71462;50.650;6.888;2023-07-20T08:59:34;7.57;;;2.58;;
81960;SDS011;71462;50.650;6.888;2023-07-20T09:01:39;5.20;;;2.10;;
81960;SDS011;71462;50.650;6.888;2023-07-20T09:03:42;3.83;;;2.08;;
81960;SDS011;71462;50.650;6.888;2023-07-20T09:05:47;5.35;;;2.15;;
81960;SDS011;71462;50.650;6.888;2023-07-20T09:07:51;3.70;;;2.15;;
81960;SDS011;71462;50.650;6.888;2023-07-20T09:09:53;4.45;;;2.20;;
81960;SDS011;71462;50.650;6.888;2023-07-20T09:12:00;3.00;;;1.90;;
81960;SDS011;71462;50.650;6.888;2023-07-20T09:14:03;3.80;;;1.83;;
81960;SDS011;71462;50.650;6.888;2023-07-20T09:16:07;3.70;;;2.10;;
81960;SDS011;71462;50.650;6.888;2023-07-20T09:18:09;4.80;;;2.13;;
81960;SDS011;71462;50.650;6.888;2023-07-20T09:20:12;3.22;;;1.92;;
81960;SDS011;71462;50.650;6.888;2023-07-20T09:22:19;4.95;;;2.00;;
81960;SDS011;71462;50.650;6.888;2023-07-20T09:24:22;3.92;;;2.00;;
81960;SDS011;71462;50.650;6.888;2023-07-20T09:26:25;4.65;;;2.13;;
81960;SDS011;71462;50.650;6.888;2023-07-20T09:28:30;4.20;;;1.90;;
81960;SDS011;71462;50.650;6.888;2023-07-20T09:30:44;3.60;;;2.03;;
81960;SDS011;71462;50.650;6.888;2023-07-20T09:32:54;4.47;;;2.22;;
81960;SDS011;71462;50.650;6.888;2023-07-20T09:34:57;3.45;;;1.90;;
81960;SDS011;71462;50.650;6.888;2023-07-20T09:37:20;4.97;;;2.20;;
81960;SDS011;71462;50.650;6.888;2023-07-20T09:39:23;3.30;;;2.00;;
81960;SDS011;71462;50.650;6.888;2023-07-20T09:41:30;5.85;;;2.13;;
81960;SDS011;71462;50.650;6.888;2023-07-20T09:43:47;5.25;;;2.30;;
81960;SDS011;71462;50.650;6.888;2023-07-20T09:45:52;4.10;;;2.05;;
81960;SDS011;71462;50.650;6.888;2023-07-20T09:48:03;4.88;;;2.15;;
81960;SDS011;71462;50.650;6.888;2023-07-20T09:50:08;5.18;;;2.10;;
81960;SDS011;71462;50.650;6.888;2023-07-20T09:52:15;4.38;;;2.15;;
81960;SDS011;71462;50.650;6.888;2023-07-20T09:54:38;4.70;;;2.00;;
81960;SDS011;71462;50.650;6.888;2023-07-20T09:56:41;5.80;;;1.95;;
81960;SDS011;71462;50.650;6.888;2023-07-20T09:58:44;4.25;;;2.00;;
81960;SDS011;71462;50.650;6.888;2023-07-20T10:00:50;4.13;;;1.83;;
81960;SDS011;71462;50.650;6.888;2023-07-20T10:02:55;2.90;;;1.80;;
81960;SDS011;71462;50.650;6.888;2023-07-20T10:04:58;3.15;;;1.90;;
81960;SDS011;71462;50.650;6.888;2023-07-20T10:07:05;4.82;;;2.30;;
81960;SDS011;71462;50.650;6.888;2023-07-20T10:09:12;4.10;;;1.80;;
81960;SDS011;71462;50.650;6.888;2023-07-20T10:11:17;3.35;;;1.90;;
81960;SDS011;71462;50.650;6.888;2023-07-20T10:13:25;4.03;;;2.00;;
81960;SDS011;71462;50.650;6.888;2023-07-20T10:15:29;3.17;;;1.90;;
81960;SDS011;71462;50.650;6.888;2023-07-20T10:17:40;5.28;;;1.80;;
81960;SDS011;71462;50.650;6.888;2023-07-20T10:19:51;4.10;;;1.85;;
81960;SDS011;71462;50.650;6.888;2023-07-20T10:22:00;3.42;;;1.83;;
81960;SDS011;71462;50.650;6.888;2023-07-20T10:24:10;4.80;;;1.92;;
81960;SDS011;71462;50.650;6.888;2023-07-20T10:26:13;3.58;;;1.80;;
81960;SDS011;71462;50.650;6.888;2023-07-20T10:28:16;2.90;;;1.65;;
81960;SDS011;71462;50.650;6.888;2023-07-20T10:30:18;2.92;;;1.80;;
81960;SDS011;71462;50.650;6.888;2023-07-20T10:32:22;4.72;;;1.73;;
81960;SDS011;71462;50.650;6.888;2023-07-20T10:34:28;2.55;;;1.52;;
81960;SDS011;71462;50.650;6.888;2023-07-20T10:36:31;4.18;;;1.83;;
81960;SDS011;71462;50.650;6.888;2023-07-20T10:38:40;2.55;;;1.60;;
81960;SDS011;71462;50.650;6.888;2023-07-20T10:40:43;4.50;;;1.60;;
81960;SDS011;71462;50.650;6.888;2023-07-20T10:42:57;2.45;;;1.60;;
81960;SDS011;71462;50.650;6.888;2023-07-20T10:45:02;3.95;;;1.60;;
81960;SDS011;71462;50.650;6.888;2023-07-20T10:47:08;3.47;;;1.80;;
81960;SDS011;71462;50.650;6.888;2023-07-20T10:49:13;4.15;;;1.90;;
81960;SDS011;71462;50.650;6.888;2023-07-20T10:51:20;4.00;;;1.80;;
81960;SDS011;71462;50.650;6.888;2023-07-20T10:53:23;3.85;;;1.77;;
81960;SDS011;71462;50.650;6.888;2023-07-20T10:55:26;5.05;;;1.90;;
81960;SDS011;71462;50.650;6.888;2023-07-20T10:57:28;2.88;;;1.83;;
81960;SDS011;71462;50.650;6.888;2023-07-20T10:59:38;4.05;;;2.00;;
81960;SDS011;71462;50.650;6.888;2023-07-20T11:01:40;4.10;;;1.90;;
81960;SDS011;71462;50.650;6.888;2023-07-20T11:03:49;2.83;;;1.35;;
81960;SDS011;71462;50.650;6.888;2023-07-20T11:05:55;2.08;;;1.40;;
81960;SDS011;71462;50.650;6.888;2023-07-20T11:08:04;4.20;;;1.80;;
81960;SDS011;71462;50.650;6.888;2023-07-20T11:10:12;2.90;;;1.60;;
81960;SDS011;71462;50.650;6.888;2023-07-20T11:12:19;3.78;;;1.55;;
81960;SDS011;71462;50.650;6.888;2023-07-20T11:14:22;4.82;;;1.63;;
81960;SDS011;71462;50.650;6.888;2023-07-20T11:16:35;2.83;;;1.67;;
81960;SDS011;71462;50.650;6.888;2023-07-20T11:18:40;4.82;;;2.00;;
81960;SDS011;71462;50.650;6.888;2023-07-20T11:20:44;2.40;;;1.33;;
81960;SDS011;71462;50.650;6.888;2023-07-20T11:22:52;4.38;;;1.70;;
81960;SDS011;71462;50.650;6.888;2023-07-20T11:24:57;3.50;;;1.27;;
81960;SDS011;71462;50.650;6.888;2023-07-20T11:27:00;3.58;;;1.70;;
81960;SDS011;71462;50.650;6.888;2023-07-20T11:29:03;2.47;;;1.50;;
81960;SDS011;71462;50.650;6.888;2023-07-20T11:31:21;2.42;;;1.55;;
81960;SDS011;71462;50.650;6.888;2023-07-20T11:33:24;2.90;;;1.42;;
81960;SDS011;71462;50.650;6.888;2023-07-20T11:35:27;2.50;;;1.40;;
81960;SDS011;71462;50.650;6.888;2023-07-20T11:37:29;2.70;;;1.58;;
81960;SDS011;71462;50.650;6.888;2023-07-20T11:39:33;3.50;;;1.70;;
81960;SDS011;71462;50.650;6.888;2023-07-20T11:41:38;2.88;;;1.63;;
81960;SDS011;71462;50.650;6.888;2023-07-20T11:43:54;2.60;;;1.48;;
81960;SDS011;71462;50.650;6.888;2023-07-20T11:45:58;3.30;;;1.63;;
81960;SDS011;71462;50.650;6.888;2023-07-20T11:48:14;4.45;;;2.20;;
81960;SDS011;71462;50.650;6.888;2023-07-20T11:50:22;6.57;;;2.00;;
81960;SDS011;71462;50.650;6.888;2023-07-20T11:52:51;4.07;;;1.65;;
81960;SDS011;71462;50.650;6.888;2023-07-20T11:54:58;3.78;;;1.60;;
81960;SDS011;71462;50.650;6.888;2023-07-20T11:57:03;2.45;;;1.40;;
81960;SDS011;71462;50.650;6.888;2023-07-20T11:59:07;3.67;;;1.65;;
81960;SDS011;71462;50.650;6.888;2023-07-20T12:01:09;5.10;;;1.60;;
81960;SDS011;71462;50.650;6.888;2023-07-20T12:03:13;4.82;;;1.60;;
81960;SDS011;71462;50.650;6.888;2023-07-20T12:05:16;3.47;;;1.98;;
81960;SDS011;71462;50.650;6.888;2023-07-20T12:07:20;3.35;;;1.55;;
81960;SDS011;71462;50.650;6.888;2023-07-20T12:09:23;5.68;;;1.80;;
81960;SDS011;71462;50.650;6.888;2023-07-20T12:11:38;2.85;;;1.40;;
81960;SDS011;71462;50.650;6.888;2023-07-20T12:13:43;3.95;;;1.70;;
81960;SDS011;71462;50.650;6.888;2023-07-20T12:15:46;4.25;;;1.60;;
81960;SDS011;71462;50.650;6.888;2023-07-20T12:17:50;2.35;;;1.63;;
81960;SDS011;71462;50.650;6.888;2023-07-20T12:19:57;3.25;;;1.98;;
81960;SDS011;71462;50.650;6.888;2023-07-20T12:21:59;2.92;;;1.60;;
81960;SDS011;71462;50.650;6.888;2023-07-20T12:24:02;3.92;;;2.10;;
81960;SDS011;71462;50.650;6.888;2023-07-20T12:26:06;4.22;;;1.85;;
81960;SDS011;71462;50.650;6.888;2023-07-20T12:28:09;4.25;;;1.42;;
81960;SDS011;71462;50.650;6.888;2023-07-20T12:30:15;2.17;;;1.50;;